Time;durP1;ratioP1;P1;durP2;ratioP2;P2;SDS_P1;SDS_P2;PMS_P1;PMS_P2;Temp;Humidity;BMP_temperature;BMP_pressure;BME280_temperature;BME280_humidity;BME280_pressure;Samples;Min_cycle;Max_cycle;Signal;HPM_P1;HPM_P2
2023/05/04 00:02:27;;;;;;;69.03;7.97;;;9.40;99.90;;;;;;5074046;28;20176;-81
2023/05/04 00:04:53;;;;;;;72.25;7.75;;;9.40;99.90;;;;;;5074318;28;20190;-81
2023/05/04 00:07:19;;;;;;;71.10;10.07;;;9.30;99.90;;;;;;5075564;28;20209;-79
2023/05/04 00:09:44;;;;;;;69.30;8.60;;;9.30;99.90;;;;;;5075810;28;20790;-79
2023/05/04 00:12:10;;;;;;;69.00;8.07;;;9.30;99.90;;;;;;5075733;28;20444;-79
2023/05/04 00:14:39;;;;;;;67.20;7.37;;;9.30;99.90;;;;;;5074848;28;20187;-79
2023/05/04 00:17:06;;;;;;;70.13;8.55;;;9.20;99.90;;;;;;5075359;28;20160;-79
2023/05/04 00:19:33;;;;;;;71.40;8.45;;;9.20;99.90;;;;;;5075852;28;20165;-79
2023/05/04 00:21:59;;;;;;;70.90;7.68;;;9.20;99.90;;;;;;5057440;28;20182;-79
2023/05/04 00:24:25;;;;;;;70.20;8.20;;;9.20;99.90;;;;;;5057364;28;20203;-79
2023/05/04 00:26:51;;;;;;;72.10;8.45;;;9.20;99.90;;;;;;5077705;28;20168;-79
2023/05/04 00:29:19;;;;;;;70.10;8.43;;;9.10;99.90;;;;;;5078889;28;20196;-79
2023/05/04 00:31:45;;;;;;;71.90;7.38;;;9.10;99.90;;;;;;5080345;28;20163;-79
2023/05/04 00:34:11;;;;;;;68.37;6.30;;;9.20;99.90;;;;;;5081830;28;20578;-79
2023/05/04 00:36:39;;;;;;;68.95;7.30;;;9.10;99.90;;;;;;5080440;28;20413;-79
2023/05/04 00:39:05;;;;;;;69.68;7.18;;;9.00;99.90;;;;;;5079468;28;20164;-80
2023/05/04 00:41:31;;;;;;;73.15;9.00;;;9.00;99.90;;;;;;5079779;28;20176;-80
2023/05/04 00:43:58;;;;;;;68.57;7.90;;;8.90;99.90;;;;;;5061930;28;20192;-80
2023/05/04 00:46:25;;;;;;;74.03;9.27;;;8.90;99.90;;;;;;5079400;28;20179;-79
2023/05/04 00:48:54;;;;;;;71.13;7.63;;;9.00;99.90;;;;;;5079227;28;20164;-79
2023/05/04 00:51:23;;;;;;;68.75;6.70;;;9.00;99.90;;;;;;5079000;28;20183;-79
2023/05/04 00:53:49;;;;;;;68.82;7.43;;;8.90;99.90;;;;;;5079568;28;20184;-79
2023/05/04 00:56:16;;;;;;;69.72;8.05;;;8.90;99.90;;;;;;5079245;28;20172;-79
2023/05/04 00:58:50;;;;;;;66.35;6.35;;;8.80;99.90;;;;;;5059530;28;20589;-79
2023/05/04 01:01:16;;;;;;;68.00;7.43;;;8.90;99.90;;;;;;5079799;28;20140;-79
2023/05/04 01:03:42;;;;;;;66.50;6.57;;;9.00;99.90;;;;;;5078839;28;20233;-79
2023/05/04 01:06:22;;;;;;;67.90;6.80;;;9.00;99.90;;;;;;5061260;28;20163;-79
2023/05/04 01:09:02;;;;;;;67.38;7.03;;;8.90;99.90;;;;;;5079116;28;20144;-79
2023/05/04 01:12:02;;;;;;;68.38;7.65;;;8.90;99.90;;;;;;5061362;28;20162;-79
2023/05/04 01:14:29;;;;;;;70.80;7.63;;;8.80;99.90;;;;;;5078846;28;20655;-79
2023/05/04 01:16:59;;;;;;;68.90;6.68;;;8.70;99.90;;;;;;5061246;28;20168;-79
2023/05/04 01:19:26;;;;;;;68.38;7.15;;;8.60;99.90;;;;;;5078163;28;20266;-79
2023/05/04 01:21:55;;;;;;;71.78;7.90;;;8.70;99.90;;;;;;5078373;28;20251;-79
2023/05/04 01:24:23;;;;;;;70.50;8.38;;;8.60;99.90;;;;;;5079215;28;20180;-79
2023/05/04 01:26:59;;;;;;;67.95;7.22;;;8.50;99.90;;;;;;5078283;28;20172;-79
2023/05/04 01:29:39;;;;;;;73.93;7.38;;;8.50;99.90;;;;;;5060162;28;20219;-79
2023/05/04 01:32:10;;;;;;;68.10;7.63;;;8.50;99.90;;;;;;5078467;28;20155;-81
2023/05/04 01:34:38;;;;;;;69.50;7.90;;;8.50;99.90;;;;;;5078269;28;20190;-82
2023/05/04 01:37:05;;;;;;;67.75;7.65;;;8.50;99.90;;;;;;5060976;28;20188;-82
2023/05/04 01:39:31;;;;;;;68.35;7.35;;;8.50;99.90;;;;;;5077836;28;20536;-79
2023/05/04 01:42:08;;;;;;;68.13;7.13;;;8.50;99.90;;;;;;5078584;28;20167;-79
2023/05/04 01:44:34;;;;;;;69.38;6.75;;;8.50;99.90;;;;;;5078059;28;20188;-79
2023/05/04 01:47:03;;;;;;;67.20;6.63;;;8.60;99.90;;;;;;5078485;28;20206;-79
2023/05/04 01:49:28;;;;;;;68.13;7.45;;;8.70;99.90;;;;;;5078064;28;20814;-79
2023/05/04 01:51:54;;;;;;;69.77;7.63;;;8.60;99.90;;;;;;5078078;28;20175;-79
2023/05/04 01:54:20;;;;;;;69.17;6.80;;;8.60;99.90;;;;;;5078389;28;20418;-79
2023/05/04 01:56:51;;;;;;;68.27;7.77;;;8.70;99.90;;;;;;5060031;28;20643;-79
2023/05/04 01:59:20;;;;;;;66.97;6.72;;;8.70;99.90;;;;;;5059905;28;20168;-79
2023/05/04 02:01:46;;;;;;;68.05;6.07;;;8.70;99.90;;;;;;5059641;28;20647;-79
2023/05/04 02:04:11;;;;;;;66.83;6.40;;;8.80;99.90;;;;;;5077488;28;20191;-79
2023/05/04 02:06:43;;;;;;;66.70;6.20;;;8.80;99.90;;;;;;5077466;28;20223;-79
2023/05/04 02:09:09;;;;;;;67.90;6.85;;;8.90;99.90;;;;;;5078037;28;20577;-79
2023/05/04 02:11:34;;;;;;;66.90;6.40;;;8.80;99.90;;;;;;5077486;28;20194;-79
2023/05/04 02:14:06;;;;;;;67.10;5.80;;;8.90;99.90;;;;;;5076760;28;20187;-79
2023/05/04 02:16:31;;;;;;;67.15;6.60;;;8.80;99.90;;;;;;5058689;28;20474;-81
2023/05/04 02:18:57;;;;;;;68.20;6.53;;;8.80;99.90;;;;;;5057867;28;20189;-81
2023/05/04 02:21:24;;;;;;;67.00;5.77;;;8.70;99.90;;;;;;5146237;22;20600;-87
2023/05/04 02:23:50;;;;;;;68.68;6.90;;;8.70;99.90;;;;;;5081270;28;20410;-86
2023/05/04 02:26:15;;;;;;;69.60;6.37;;;8.70;99.90;;;;;;5080034;28;20170;-87
2023/05/04 02:28:41;;;;;;;66.77;6.33;;;8.70;99.90;;;;;;5079453;28;20164;-87
2023/05/04 02:31:07;;;;;;;65.90;5.47;;;8.60;99.90;;;;;;5079317;28;20185;-87
2023/05/04 02:33:32;;;;;;;67.97;6.90;;;8.70;99.90;;;;;;5079592;28;20163;-87
2023/05/04 02:35:58;;;;;;;66.37;6.10;;;8.60;99.90;;;;;;5079637;28;20574;-86
2023/05/04 02:38:25;;;;;;;70.03;6.57;;;8.60;99.90;;;;;;5079249;28;20241;-87
2023/05/04 02:40:51;;;;;;;66.43;6.20;;;8.60;99.90;;;;;;5079177;28;20663;-87
2023/05/04 02:43:17;;;;;;;70.10;7.70;;;8.60;99.90;;;;;;5078193;28;20178;-87
2023/05/04 02:45:43;;;;;;;67.40;6.60;;;8.60;99.90;;;;;;5077982;28;20198;-87
2023/05/04 02:48:08;;;;;;;67.67;6.93;;;8.60;99.90;;;;;;5078007;28;20516;-87
2023/05/04 02:50:34;;;;;;;70.90;6.30;;;8.60;99.90;;;;;;5077285;28;20439;-87
2023/05/04 02:53:03;;;;;;;66.73;5.70;;;8.60;99.90;;;;;;5078827;28;20160;-87
2023/05/04 02:55:28;;;;;;;67.60;6.43;;;8.50;99.90;;;;;;5079237;28;20232;-87
2023/05/04 02:57:54;;;;;;;67.30;6.97;;;8.60;99.90;;;;;;5079797;28;20619;-87
2023/05/04 03:00:20;;;;;;;67.82;7.07;;;8.50;99.90;;;;;;5078367;28;20216;-87
2023/05/04 03:02:46;;;;;;;67.20;7.23;;;8.50;99.90;;;;;;5082403;28;20231;-87
2023/05/04 03:05:11;;;;;;;68.67;6.87;;;8.50;99.90;;;;;;5079792;28;20195;-87
2023/05/04 03:07:37;;;;;;;67.53;7.27;;;8.50;99.90;;;;;;5079066;28;20623;-87
2023/05/04 03:10:03;;;;;;;66.33;6.97;;;8.50;99.90;;;;;;5077660;28;20192;-87
2023/05/04 03:12:29;;;;;;;67.30;7.27;;;8.40;99.90;;;;;;5077610;28;20595;-87
2023/05/04 03:14:54;;;;;;;66.97;7.10;;;8.40;99.90;;;;;;5077259;28;20832;-87
2023/05/04 03:17:20;;;;;;;67.17;7.40;;;8.40;99.90;;;;;;5076237;28;20251;-87
2023/05/04 03:19:46;;;;;;;69.20;6.73;;;8.50;99.90;;;;;;5078988;28;20164;-87
2023/05/04 03:22:11;;;;;;;69.83;7.07;;;8.40;99.90;;;;;;5078975;28;20631;-87
2023/05/04 03:24:38;;;;;;;67.00;6.87;;;8.50;99.90;;;;;;5078253;28;20191;-87
2023/05/04 03:27:04;;;;;;;69.20;6.85;;;8.40;99.90;;;;;;5077006;28;20167;-87
2023/05/04 03:29:30;;;;;;;66.73;6.50;;;8.50;99.90;;;;;;5078720;28;20209;-87
2023/05/04 03:31:55;;;;;;;70.20;7.37;;;8.60;99.90;;;;;;5077684;28;20175;-87
2023/05/04 03:34:24;;;;;;;67.37;6.60;;;8.50;99.90;;;;;;5078245;28;20237;-87
2023/05/04 03:36:49;;;;;;;70.07;6.93;;;8.50;99.90;;;;;;5078571;28;20160;-87
2023/05/04 03:39:18;;;;;;;67.37;6.70;;;8.40;99.90;;;;;;5078708;28;20166;-87
2023/05/04 03:41:44;;;;;;;70.35;6.95;;;8.40;99.90;;;;;;5077373;28;20214;-87
2023/05/04 03:44:10;;;;;;;70.63;6.82;;;8.40;99.90;;;;;;5076949;28;20192;-87
2023/05/04 03:46:35;;;;;;;66.87;6.60;;;8.50;99.90;;;;;;5077122;28;20220;-87
2023/05/04 03:49:01;;;;;;;66.30;5.93;;;8.40;99.90;;;;;;5075904;28;20217;-87
2023/05/04 03:51:27;;;;;;;67.00;6.47;;;8.50;99.90;;;;;;5078487;28;20163;-87
2023/05/04 03:53:55;;;;;;;70.57;6.90;;;8.50;99.90;;;;;;5077999;28;20547;-88
2023/05/04 03:56:21;;;;;;;68.30;6.45;;;8.60;99.90;;;;;;5075608;28;20225;-87
2023/05/04 03:58:50;;;;;;;65.67;5.40;;;8.60;97.90;;;;;;5077664;28;20164;-87
2023/05/04 04:01:15;;;;;;;67.30;5.90;;;8.60;95.80;;;;;;5077274;28;20631;-87
2023/05/04 04:03:41;;;;;;;66.67;5.30;;;8.70;94.70;;;;;;5076224;28;20191;-87
2023/05/04 04:06:08;;;;;;;66.17;6.10;;;8.70;92.60;;;;;;5075504;28;20182;-87
2023/05/04 04:08:34;;;;;;;67.07;5.88;;;8.70;90.80;;;;;;5076809;28;20371;-87
2023/05/04 04:11:00;;;;;;;67.70;6.13;;;8.80;88.90;;;;;;5076119;28;20202;-88
2023/05/04 04:13:26;;;;;;;68.93;5.87;;;8.90;88.80;;;;;;5076351;28;20647;-87
2023/05/04 04:15:53;;;;;;;67.10;5.70;;;8.90;87.00;;;;;;5075377;28;20711;-87
2023/05/04 04:18:19;;;;;;;67.63;6.13;;;8.90;85.50;;;;;;5077003;28;20160;-87
2023/05/04 04:20:45;;;;;;;67.90;6.03;;;8.90;89.80;;;;;;5077001;28;20176;-87
2023/05/04 04:23:10;;;;;;;68.23;5.90;;;8.90;89.70;;;;;;5076346;28;20574;-87
2023/05/04 04:25:36;;;;;;;67.37;5.63;;;8.90;86.90;;;;;;5074981;28;20191;-87
2023/05/04 04:28:02;;;;;;;69.20;6.47;;;8.90;84.80;;;;;;5076539;28;20193;-86
2023/05/04 04:30:28;;;;;;;67.60;5.67;;;8.90;84.00;;;;;;5074953;28;20192;-86
2023/05/04 04:32:55;;;;;;;66.20;5.60;;;8.90;80.40;;;;;;5074941;28;20449;-87
2023/05/04 04:35:24;;;;;;;67.50;6.18;;;8.90;82.70;;;;;;5076951;28;20418;-87
2023/05/04 04:37:50;;;;;;;68.13;6.63;;;8.90;80.30;;;;;;5076778;28;20528;-87
2023/05/04 04:40:16;;;;;;;67.15;5.82;;;9.00;78.00;;;;;;5076695;28;20186;-86
2023/05/04 04:42:42;;;;;;;67.68;6.03;;;9.10;75.50;;;;;;5074934;28;20257;-86
2023/05/04 04:45:08;;;;;;;66.80;5.50;;;9.10;77.30;;;;;;5076471;28;20191;-87
2023/05/04 04:47:34;;;;;;;66.45;6.03;;;9.00;72.90;;;;;;5075459;28;20607;-86
2023/05/04 04:50:00;;;;;;;66.17;5.43;;;9.10;69.50;;;;;;5076265;28;20184;-87
2023/05/04 04:52:26;;;;;;;65.90;5.70;;;9.10;72.40;;;;;;5075843;28;20405;-86
2023/05/04 04:54:51;;;;;;;67.70;6.50;;;9.20;69.70;;;;;;5075897;28;20180;-86
2023/05/04 04:57:17;;;;;;;68.63;6.00;;;9.10;70.70;;;;;;5074850;28;20217;-86
2023/05/04 04:59:43;;;;;;;67.20;6.63;;;9.20;69.30;;;;;;5075499;28;20668;-86
2023/05/04 05:02:12;;;;;;;69.17;6.67;;;9.20;68.70;;;;;;5075927;28;20406;-87
2023/05/04 05:04:41;;;;;;;67.03;5.95;;;9.30;63.70;;;;;;5075949;28;20225;-87
2023/05/04 05:07:07;;;;;;;69.25;6.55;;;9.30;67.60;;;;;;5075587;28;20167;-87
2023/05/04 05:09:34;;;;;;;67.45;6.40;;;9.30;62.40;;;;;;5073742;28;20195;-87
2023/05/04 05:11:59;;;;;;;66.60;6.05;;;9.30;58.50;;;;;;5075351;28;20679;-86
2023/05/04 05:14:26;;;;;;;65.87;5.60;;;9.40;61.80;;;;;;5076980;28;20226;-86
2023/05/04 05:16:52;;;;;;;67.00;4.97;;;9.50;57.40;;;;;;5077895;28;20164;-87
2023/05/04 05:19:21;;;;;;;68.07;5.72;;;9.60;57.90;;;;;;5079665;28;20168;-87
2023/05/04 05:21:48;;;;;;;70.70;7.13;;;9.70;58.30;;;;;;5078144;28;20184;-86
2023/05/04 05:24:14;;;;;;;67.97;6.07;;;9.70;54.60;;;;;;5078144;28;20279;-86
2023/05/04 05:26:40;;;;;;;69.65;6.00;;;9.80;53.80;;;;;;5077765;28;20164;-87
2023/05/04 05:29:06;;;;;;;72.60;6.15;;;9.90;51.20;;;;;;5078275;28;20168;-87
2023/05/04 05:31:31;;;;;;;68.10;5.80;;;10.00;48.30;;;;;;5078214;28;20258;-86
2023/05/04 05:33:57;;;;;;;69.07;6.10;;;10.10;42.80;;;;;;5077595;28;20199;-86
2023/05/04 05:36:23;;;;;;;69.40;6.90;;;10.10;37.80;;;;;;5078974;28;20189;-86
2023/05/04 05:38:49;;;;;;;67.47;6.30;;;10.20;36.20;;;;;;5077515;28;20258;-86
2023/05/04 05:41:14;;;;;;;70.03;6.40;;;10.30;30.70;;;;;;5079273;28;20165;-86
2023/05/04 05:43:40;;;;;;;67.50;5.70;;;10.40;30.80;;;;;;5078968;28;20410;-87
2023/05/04 05:46:06;;;;;;;68.07;6.37;;;10.50;31.10;;;;;;5077909;28;20172;-86
2023/05/04 05:48:35;;;;;;;66.70;6.37;;;10.60;26.50;;;;;;5078208;28;20246;-86
2023/05/04 05:51:00;;;;;;;66.38;5.80;;;10.50;19.80;;;;;;5078906;28;20442;-86
2023/05/04 05:53:26;;;;;;;67.40;5.60;;;10.60;23.60;;;;;;5077062;28;20167;-87
2023/05/04 05:55:52;;;;;;;68.87;5.67;;;10.60;20.80;;;;;;5078418;28;20172;-86
2023/05/04 05:58:18;;;;;;;67.17;5.70;;;10.70;18.70;;;;;;5079060;28;20163;-86
2023/05/04 06:00:43;;;;;;;69.00;6.80;;;10.70;20.50;;;;;;5078755;28;20402;-87
2023/05/04 06:03:09;;;;;;;67.60;5.90;;;10.80;17.50;;;;;;5078540;28;20164;-87
2023/05/04 06:05:35;;;;;;;71.00;6.67;;;10.70;15.70;;;;;;5078861;28;20263;-86
2023/05/04 06:08:01;;;;;;;66.03;6.10;;;10.70;17.60;;;;;;5077135;28;20262;-86
2023/05/04 06:10:26;;;;;;;68.37;5.80;;;10.80;19.40;;;;;;5076760;28;20195;-86
2023/05/04 06:12:52;;;;;;;68.43;5.40;;;10.80;22.50;;;;;;5078504;28;20170;-86
2023/05/04 06:15:18;;;;;;;67.07;5.77;;;10.90;16.60;;;;;;5078252;28;20179;-85
2023/05/04 06:17:44;;;;;;;67.22;5.38;;;10.90;17.30;;;;;;5077267;28;20164;-86
2023/05/04 06:20:10;;;;;;;67.30;5.93;;;11.00;19.10;;;;;;5077121;28;20649;-86
2023/05/04 06:22:36;;;;;;;68.15;5.65;;;11.00;17.70;;;;;;5076538;28;20167;-87
2023/05/04 06:25:02;;;;;;;68.47;6.40;;;11.10;19.80;;;;;;5077382;28;20195;-87
2023/05/04 06:27:32;;;;;;;71.95;6.00;;;11.20;14.30;;;;;;5078864;28;20247;-85
2023/05/04 06:29:57;;;;;;;73.07;6.50;;;11.20;11.70;;;;;;5076913;28;20195;-85
2023/05/04 06:32:23;;;;;;;68.53;5.90;;;11.40;14.70;;;;;;5077834;28;20223;-85
2023/05/04 06:34:54;;;;;;;71.63;6.57;;;11.50;11.20;;;;;;5077352;28;20178;-84
2023/05/04 06:37:20;;;;;;;68.18;6.10;;;11.50;13.00;;;;;;5075847;28;20182;-85
2023/05/04 06:39:46;;;;;;;69.13;6.75;;;11.50;8.30;;;;;;5076249;28;20164;-85
2023/05/04 06:42:12;;;;;;;68.93;5.83;;;11.60;8.30;;;;;;5077402;28;20193;-86
2023/05/04 06:44:38;;;;;;;67.68;6.05;;;11.70;6.40;;;;;;5075226;28;20309;-85
2023/05/04 06:47:06;;;;;;;71.47;6.45;;;11.70;3.60;;;;;;5075769;28;20172;-86
2023/05/04 06:49:33;;;;;;;67.85;6.18;;;11.80;2.00;;;;;;5075436;28;20199;-86
2023/05/04 06:51:59;;;;;;;69.68;6.80;;;11.90;5.10;;;;;;5077834;28;20155;-86
2023/05/04 06:54:28;;;;;;;68.70;5.95;;;11.90;2.90;;;;;;5076368;28;20187;-85
2023/05/04 06:56:54;;;;;;;69.47;6.10;;;12.00;3.70;;;;;;5075867;28;20167;-85
2023/05/04 06:59:21;;;;;;;67.87;7.00;;;12.10;2.70;;;;;;5077099;28;20627;-85
2023/05/04 07:01:46;;;;;;;69.47;6.65;;;12.20;1.00;;;;;;5076735;28;20414;-86
2023/05/04 07:04:15;;;;;;;69.77;6.03;;;12.20;1.00;;;;;;5075639;28;20187;-86
2023/05/04 07:06:42;;;;;;;67.20;6.93;;;12.20;1.00;;;;;;5076307;28;20442;-86
2023/05/04 07:09:08;;;;;;;74.60;6.22;;;12.30;1.00;;;;;;5077368;28;20213;-85
2023/05/04 07:11:33;;;;;;;70.73;6.30;;;12.30;1.00;;;;;;5077051;28;20172;-86
2023/05/04 07:14:02;;;;;;;66.40;6.23;;;12.40;1.00;;;;;;5075903;28;20222;-86
2023/05/04 07:16:27;;;;;;;69.50;6.95;;;12.50;1.00;;;;;;5075541;28;20305;-85
2023/05/04 07:18:53;;;;;;;71.87;7.50;;;12.60;1.00;;;;;;5077352;28;20177;-86
2023/05/04 07:21:19;;;;;;;69.80;7.07;;;12.60;1.00;;;;;;5076871;28;20674;-86
2023/05/04 07:23:45;;;;;;;68.80;6.33;;;12.70;1.00;;;;;;5076188;28;20277;-85
2023/05/04 07:26:10;;;;;;;70.90;6.60;;;12.80;1.00;;;;;;5075553;28;20160;-86
2023/05/04 07:28:37;;;;;;;69.37;7.27;;;12.90;1.00;;;;;;5076772;28;20162;-86
2023/05/04 07:31:03;;;;;;;68.60;6.82;;;12.90;1.00;;;;;;5076980;28;20191;-86
2023/05/04 07:33:29;;;;;;;67.67;6.87;;;13.00;1.00;;;;;;5075343;28;20164;-85
2023/05/04 07:36:01;;;;;;;66.57;6.30;;;13.10;1.00;;;;;;5076180;28;20800;-86
2023/05/04 07:38:27;;;;;;;71.43;6.45;;;13.10;1.00;;;;;;5076769;28;20156;-86
2023/05/04 07:40:56;;;;;;;70.97;6.83;;;13.20;1.00;;;;;;5075673;28;20267;-86
2023/05/04 07:43:22;;;;;;;74.07;7.05;;;13.30;1.00;;;;;;5076626;28;20642;-86
2023/05/04 07:45:48;;;;;;;68.13;6.45;;;13.40;1.00;;;;;;5077044;28;20172;-86
2023/05/04 07:48:13;;;;;;;69.20;7.30;;;13.40;1.00;;;;;;5076440;28;20237;-86
2023/05/04 07:50:39;;;;;;;73.20;7.27;;;13.50;1.00;;;;;;5075219;28;20184;-85
2023/05/04 07:53:05;;;;;;;68.00;7.00;;;13.60;1.00;;;;;;5075261;28;20254;-85
2023/05/04 07:55:40;;;;;;;68.60;6.13;;;13.70;1.00;;;;;;5076995;28;20417;-86
2023/05/04 07:58:08;;;;;;;68.78;6.30;;;13.80;1.00;;;;;;5076103;28;20166;-86
2023/05/04 08:00:35;;;;;;;69.57;6.70;;;13.90;1.00;;;;;;5074551;28;20168;-86
2023/05/04 08:03:00;;;;;;;68.77;6.40;;;13.90;1.00;;;;;;5076116;28;20891;-87
2023/05/04 08:05:26;;;;;;;69.63;6.77;;;14.10;1.00;;;;;;5075099;28;20501;-86
2023/05/04 08:07:51;;;;;;;66.87;7.27;;;14.20;1.00;;;;;;5076909;28;20257;-87
2023/05/04 08:10:17;;;;;;;67.67;6.77;;;14.30;1.00;;;;;;5075057;28;20541;-86
2023/05/04 08:12:43;;;;;;;69.50;9.70;;;14.30;1.00;;;;;;5074687;28;20159;-86
2023/05/04 08:15:09;;;;;;;70.10;7.80;;;14.40;1.00;;;;;;5076323;28;20422;-86
2023/05/04 08:17:36;;;;;;;68.57;7.20;;;14.50;1.00;;;;;;5075057;28;20186;-86
2023/05/04 08:20:03;;;;;;;68.90;8.10;;;14.60;1.00;;;;;;5143548;23;20848;-81
2023/05/04 08:22:28;;;;;;;67.10;6.90;;;14.70;1.00;;;;;;5072955;28;20429;-81
2023/05/04 08:24:54;;;;;;;73.00;6.57;;;14.80;1.00;;;;;;5074789;28;20421;-81
2023/05/04 08:27:20;;;;;;;69.00;8.20;;;14.90;1.00;;;;;;5073030;28;20203;-81
2023/05/04 08:29:45;;;;;;;69.17;6.80;;;15.00;1.00;;;;;;5074584;28;20218;-81
2023/05/04 08:32:11;;;;;;;70.40;7.40;;;15.00;1.00;;;;;;5073274;28;20160;-81
2023/05/04 08:34:37;;;;;;;67.40;7.03;;;15.10;1.00;;;;;;5072326;28;20674;-81
2023/05/04 08:37:03;;;;;;;68.50;6.70;;;15.10;1.00;;;;;;5072882;28;20169;-81
2023/05/04 08:39:29;;;;;;;70.57;7.40;;;15.20;1.00;;;;;;5074302;28;20402;-82
2023/05/04 08:41:55;;;;;;;72.90;6.53;;;15.40;1.00;;;;;;5072852;28;20485;-81
2023/05/04 08:44:22;;;;;;;68.23;6.67;;;15.50;1.00;;;;;;5073994;28;20460;-81
2023/05/04 08:46:52;;;;;;;69.70;7.67;;;15.50;1.00;;;;;;5074201;28;20429;-81
2023/05/04 08:49:22;;;;;;;72.07;7.53;;;15.60;1.00;;;;;;5077305;28;20430;-81
2023/05/04 08:51:49;;;;;;;72.43;6.23;;;15.70;1.00;;;;;;5078428;28;20386;-82
2023/05/04 08:54:16;;;;;;;69.47;6.97;;;15.80;1.00;;;;;;5076529;28;21018;-82
2023/05/04 08:56:43;;;;;;;72.97;6.60;;;15.90;1.00;;;;;;5076616;28;20460;-82
2023/05/04 08:59:16;;;;;;;69.20;7.30;;;16.00;1.00;;;;;;5077961;28;20417;-82
2023/05/04 09:01:42;;;;;;;68.93;7.57;;;16.10;1.00;;;;;;5078384;28;20371;-82
2023/05/04 09:04:08;;;;;;;71.07;6.50;;;16.20;1.00;;;;;;5077487;28;20460;-82
2023/05/04 09:06:37;;;;;;;71.60;7.40;;;16.30;1.00;;;;;;5077557;28;20497;-81
2023/05/04 09:09:03;;;;;;;70.50;6.23;;;16.40;1.00;;;;;;5077159;28;20402;-82
2023/05/04 09:11:29;;;;;;;71.47;7.40;;;16.50;1.00;;;;;;5076016;28;20915;-82
2023/05/04 09:13:55;;;;;;;75.40;7.47;;;16.60;1.00;;;;;;5077663;28;20544;-81
2023/05/04 09:16:21;;;;;;;70.20;7.50;;;16.90;1.00;;;;;;5077045;28;20486;-81
2023/05/04 09:18:46;;;;;;;72.83;6.47;;;16.90;1.00;;;;;;5077337;28;20165;-82
2023/05/04 09:21:12;;;;;;;73.00;7.13;;;17.00;1.00;;;;;;5077001;28;20967;-82
2023/05/04 09:23:49;;;;;;;71.73;6.87;;;17.00;1.00;;;;;;5076128;28;20175;-81
2023/05/04 09:26:25;;;;;;;72.23;7.00;;;17.10;1.00;;;;;;5075618;28;20173;-82
2023/05/04 09:28:50;;;;;;;68.40;6.80;;;17.20;1.00;;;;;;5077020;28;20752;-82
2023/05/04 09:31:16;;;;;;;68.57;6.70;;;17.20;1.00;;;;;;5076964;28;20451;-82
2023/05/04 09:33:43;;;;;;;69.27;6.50;;;17.30;1.00;;;;;;5076487;28;20188;-82
2023/05/04 09:36:23;;;;;;;71.77;6.70;;;17.50;1.00;;;;;;5076502;28;20650;-82
2023/05/04 09:38:49;;;;;;;69.87;6.23;;;17.70;1.00;;;;;;5076375;28;20442;-81
2023/05/04 09:41:15;;;;;;;72.20;6.13;;;18.00;1.00;;;;;;5077244;28;20413;-82
2023/05/04 09:43:42;;;;;;;70.40;7.30;;;18.10;1.00;;;;;;5076689;28;20538;-82
2023/05/04 09:46:18;;;;;;;74.00;6.77;;;18.10;1.00;;;;;;5076426;28;20172;-82
2023/05/04 09:48:51;;;;;;;72.50;8.00;;;18.10;1.00;;;;;;5075258;28;20416;-82
2023/05/04 09:51:21;;;;;;;71.80;7.10;;;18.30;1.00;;;;;;5076152;28;20451;-82
2023/05/04 09:53:49;;;;;;;71.87;8.70;;;18.30;1.00;;;;;;5074836;28;20433;-82
2023/05/04 09:56:19;;;;;;;70.53;7.57;;;18.30;1.00;;;;;;5074865;28;20417;-82
2023/05/04 09:58:46;;;;;;;70.30;9.43;;;18.50;1.00;;;;;;5076025;28;20398;-82
2023/05/04 10:01:11;;;;;;;72.13;8.17;;;18.50;1.00;;;;;;5075878;28;20456;-82
2023/05/04 10:03:38;;;;;;;76.20;10.33;;;18.70;1.00;;;;;;5075988;28;20411;-82
2023/05/04 10:06:04;;;;;;;73.13;11.50;;;18.90;1.00;;;;;;5074736;28;20211;-82
2023/05/04 10:08:31;;;;;;;71.87;10.60;;;19.00;1.00;;;;;;5075939;28;20848;-82
2023/05/04 10:10:57;;;;;;;72.53;11.30;;;19.10;1.00;;;;;;5075596;28;20891;-82
2023/05/04 10:13:26;;;;;;;70.93;12.00;;;19.10;1.00;;;;;;5075816;28;20766;-82
2023/05/04 10:16:26;;;;;;;72.13;12.37;;;19.20;1.00;;;;;;5075726;28;20893;-82
2023/05/04 10:19:14;;;;;;;72.67;10.13;;;19.40;1.00;;;;;;5075707;28;20460;-82
2023/05/04 10:22:02;;;;;;;72.37;10.27;;;19.70;1.00;;;;;;5074518;28;20414;-82
2023/05/04 10:24:34;;;;;;;73.37;7.20;;;20.00;1.00;;;;;;5075811;28;20418;-82
2023/05/04 10:27:09;;;;;;;70.40;8.37;;;20.10;1.00;;;;;;5074745;28;20932;-80
2023/05/04 10:29:36;;;;;;;71.97;6.83;;;20.20;1.00;;;;;;5075676;28;20484;-80
2023/05/04 10:32:02;;;;;;;70.03;7.07;;;20.40;1.00;;;;;;5075299;28;20407;-80
2023/05/04 10:34:32;;;;;;;74.90;6.50;;;20.50;1.00;;;;;;5075346;28;20943;-80
2023/05/04 10:36:59;;;;;;;73.97;6.40;;;20.60;1.00;;;;;;5075399;28;20402;-80
2023/05/04 10:39:32;;;;;;;69.30;6.10;;;20.70;1.00;;;;;;5075178;28;20414;-80
2023/05/04 10:42:00;;;;;;;70.73;5.93;;;20.80;1.00;;;;;;5076108;28;20402;-80
2023/05/04 10:44:28;;;;;;;70.67;4.83;;;21.00;1.00;;;;;;5075100;28;20443;-80
2023/05/04 10:46:57;;;;;;;73.37;5.43;;;21.10;1.00;;;;;;5073657;28;20420;-80
2023/05/04 10:49:25;;;;;;;70.43;5.07;;;21.30;1.00;;;;;;5074087;28;20456;-80
2023/05/04 10:52:07;;;;;;;69.80;4.90;;;21.30;1.00;;;;;;5073615;28;20471;-80
2023/05/04 10:54:37;;;;;;;71.07;5.70;;;21.50;1.00;;;;;;5075203;28;20928;-80
2023/05/04 10:57:21;;;;;;;70.00;5.80;;;21.50;1.00;;;;;;5075271;28;20412;-80
2023/05/04 10:59:55;;;;;;;72.20;6.40;;;21.40;1.00;;;;;;5075296;28;20430;-80
2023/05/04 11:02:23;;;;;;;71.67;6.17;;;21.60;1.00;;;;;;5075273;28;20384;-80
2023/05/04 11:05:05;;;;;;;69.50;6.07;;;21.50;1.00;;;;;;5074978;28;20427;-80
2023/05/04 11:07:38;;;;;;;71.40;6.77;;;21.50;1.00;;;;;;5073499;28;20408;-80
2023/05/04 11:10:20;;;;;;;71.87;6.23;;;21.40;1.00;;;;;;5074494;28;20441;-80
2023/05/04 11:12:45;;;;;;;72.67;7.10;;;21.40;1.00;;;;;;5073270;28;20399;-80
2023/05/04 11:15:11;;;;;;;72.70;6.73;;;21.50;1.00;;;;;;5073225;28;20444;-80
2023/05/04 11:17:48;;;;;;;71.63;6.27;;;21.70;1.00;;;;;;5074789;28;20534;-80
2023/05/04 11:20:25;;;;;;;72.33;6.33;;;21.80;1.00;;;;;;5073477;28;20186;-80
2023/05/04 11:22:51;;;;;;;74.80;9.03;;;21.90;1.00;;;;;;5073496;28;20420;-80
2023/05/04 11:25:29;;;;;;;70.97;8.20;;;21.90;1.00;;;;;;5075070;28;20422;-80
2023/05/04 11:27:56;;;;;;;69.83;7.73;;;21.90;1.00;;;;;;5073457;28;20908;-80
2023/05/04 11:30:33;;;;;;;70.10;5.77;;;21.90;1.00;;;;;;5073126;28;20852;-80
2023/05/04 11:32:59;;;;;;;73.00;8.50;;;22.10;1.00;;;;;;5074846;28;20390;-80
2023/05/04 11:35:25;;;;;;;78.73;9.00;;;22.20;1.00;;;;;;5074986;28;20452;-80
2023/05/04 11:37:51;;;;;;;73.33;9.63;;;22.20;1.00;;;;;;5074612;28;20447;-80
2023/05/04 11:40:26;;;;;;;70.07;8.23;;;22.20;1.00;;;;;;5073380;28;20584;-81
2023/05/04 11:42:54;;;;;;;73.70;10.07;;;22.50;1.00;;;;;;5073151;28;20455;-80
2023/05/04 11:45:33;;;;;;;74.37;12.03;;;22.80;1.00;;;;;;5074368;28;20453;-81
2023/05/04 11:48:00;;;;;;;71.07;11.03;;;23.10;1.00;;;;;;5072948;28;20406;-81
2023/05/04 11:50:27;;;;;;;75.50;11.43;;;23.10;1.00;;;;;;5074446;28;20468;-80
2023/05/04 11:53:12;;;;;;;74.47;13.20;;;23.00;1.00;;;;;;5073210;28;20466;-80
2023/05/04 11:55:40;;;;;;;77.93;16.40;;;22.80;1.00;;;;;;5074482;28;20480;-81
2023/05/04 11:58:09;;;;;;;76.10;20.53;;;22.90;1.00;;;;;;5074555;28;20477;-81
2023/05/04 12:00:43;;;;;;;74.57;13.10;;;23.20;1.00;;;;;;5073387;28;20805;-81
2023/05/04 12:03:13;;;;;;;76.60;14.93;;;23.00;1.00;;;;;;5075618;28;20437;-80
2023/05/04 12:05:50;;;;;;;72.03;11.50;;;23.00;1.00;;;;;;5074822;28;20414;-81
2023/05/04 12:08:25;;;;;;;72.07;10.40;;;22.90;1.00;;;;;;5074735;28;20455;-81
2023/05/04 12:11:09;;;;;;;71.53;7.10;;;23.10;1.00;;;;;;5074783;28;20460;-80
2023/05/04 12:13:35;;;;;;;73.30;8.90;;;23.10;1.00;;;;;;5074946;28;20427;-80
2023/05/04 12:16:11;;;;;;;70.40;6.03;;;23.40;1.00;;;;;;5074773;28;20901;-81
2023/05/04 12:18:37;;;;;;;71.67;6.37;;;23.60;1.00;;;;;;5074251;28;20501;-80
2023/05/04 12:21:08;;;;;;;75.00;9.93;;;23.50;1.00;;;;;;5072824;28;20445;-80
2023/05/04 12:23:35;;;;;;;70.17;5.90;;;23.60;1.00;;;;;;5077852;28;20901;-81
2023/05/04 12:26:01;;;;;;;71.10;5.23;;;23.60;1.00;;;;;;5078936;28;20984;-80
2023/05/04 12:28:28;;;;;;;71.53;5.07;;;23.70;1.00;;;;;;5078942;28;20455;-81
2023/05/04 12:30:55;;;;;;;72.60;4.50;;;23.60;1.00;;;;;;5077206;28;20442;-81
2023/05/04 12:33:20;;;;;;;69.57;5.30;;;23.70;1.00;;;;;;5078524;28;20406;-81
2023/05/04 12:35:47;;;;;;;69.33;4.77;;;23.70;1.00;;;;;;5078302;28;20422;-81
2023/05/04 12:38:12;;;;;;;72.27;4.20;;;23.80;1.00;;;;;;5078825;28;20235;-81
2023/05/04 12:40:41;;;;;;;70.43;4.23;;;23.90;1.00;;;;;;5078118;28;20472;-81
2023/05/04 12:43:07;;;;;;;69.33;3.87;;;24.00;1.00;;;;;;5078124;28;20210;-81
2023/05/04 12:45:33;;;;;;;72.70;4.57;;;24.00;1.00;;;;;;5078848;28;20433;-81
2023/05/04 12:47:59;;;;;;;70.43;3.60;;;23.80;1.00;;;;;;5080502;28;20398;-81
2023/05/04 12:50:24;;;;;;;76.17;5.13;;;23.90;1.00;;;;;;5082416;28;20191;-82